sensor_id;sensor_type;location;lat;lon;timestamp;P1;durP1;ratioP1;P2;durP2;ratioP2
71963;SDS011;59834;52.124;5.422;2023-07-13T00:01:53;5.85;;;0.85;;
71963;SDS011;59834;52.124;5.422;2023-07-13T00:04:21;11.20;;;0.77;;
71963;SDS011;59834;52.124;5.422;2023-07-13T00:06:51;6.13;;;1.27;;
71963;SDS011;59834;52.124;5.422;2023-07-13T00:09:18;6.10;;;1.75;;
71963;SDS011;59834;52.124;5.422;2023-07-13T00:11:49;5.45;;;0.60;;
71963;SDS011;59834;52.124;5.422;2023-07-13T00:14:18;6.38;;;0.63;;
71963;SDS011;59834;52.124;5.422;2023-07-13T00:16:45;8.07;;;0.77;;
71963;SDS011;59834;52.124;5.422;2023-07-13T00:19:12;10.63;;;1.87;;
71963;SDS011;59834;52.124;5.422;2023-07-13T00:21:40;7.05;;;1.67;;
71963;SDS011;59834;52.124;5.422;2023-07-13T00:24:11;8.57;;;0.60;;
71963;SDS011;59834;52.124;5.422;2023-07-13T00:26:40;5.82;;;0.57;;
71963;SDS011;59834;52.124;5.422;2023-07-13T00:29:06;7.90;;;0.40;;
71963;SDS011;59834;52.124;5.422;2023-07-13T00:31:34;5.97;;;0.60;;
71963;SDS011;59834;52.124;5.422;2023-07-13T00:34:02;6.07;;;1.38;;
71963;SDS011;59834;52.124;5.422;2023-07-13T00:36:30;5.18;;;0.70;;
71963;SDS011;59834;52.124;5.422;2023-07-13T00:38:57;4.90;;;0.80;;
71963;SDS011;59834;52.124;5.422;2023-07-13T00:41:23;4.60;;;0.50;;
71963;SDS011;59834;52.124;5.422;2023-07-13T00:43:50;5.20;;;0.57;;
71963;SDS011;59834;52.124;5.422;2023-07-13T00:46:22;26.10;;;1.75;;
71963;SDS011;59834;52.124;5.422;2023-07-13T00:48:51;2.38;;;1.10;;
71963;SDS011;59834;52.124;5.422;2023-07-13T00:51:23;4.82;;;0.43;;
71963;SDS011;59834;52.124;5.422;2023-07-13T00:53:55;10.18;;;0.77;;
71963;SDS011;59834;52.124;5.422;2023-07-13T00:56:24;6.07;;;0.80;;
71963;SDS011;59834;52.124;5.422;2023-07-13T00:58:51;10.57;;;1.08;;
71963;SDS011;59834;52.124;5.422;2023-07-13T01:01:19;4.97;;;0.50;;
71963;SDS011;59834;52.124;5.422;2023-07-13T01:03:45;3.50;;;0.50;;
71963;SDS011;59834;52.124;5.422;2023-07-13T01:06:13;4.97;;;0.50;;
71963;SDS011;59834;52.124;5.422;2023-07-13T01:08:40;6.03;;;0.40;;
71963;SDS011;59834;52.124;5.422;2023-07-13T01:11:07;5.15;;;0.30;;
71963;SDS011;59834;52.124;5.422;2023-07-13T01:13:34;2.05;;;0.30;;
71963;SDS011;59834;52.124;5.422;2023-07-13T01:16:02;4.55;;;0.47;;
71963;SDS011;59834;52.124;5.422;2023-07-13T01:18:38;7.05;;;0.77;;
71963;SDS011;59834;52.124;5.422;2023-07-13T01:21:04;7.63;;;0.50;;
71963;SDS011;59834;52.124;5.422;2023-07-13T01:23:31;2.90;;;0.38;;
71963;SDS011;59834;52.124;5.422;2023-07-13T01:25:58;11.52;;;1.25;;
71963;SDS011;59834;52.124;5.422;2023-07-13T01:28:27;2.58;;;0.40;;
71963;SDS011;59834;52.124;5.422;2023-07-13T01:30:55;7.65;;;0.60;;
71963;SDS011;59834;52.124;5.422;2023-07-13T01:33:24;6.30;;;0.57;;
71963;SDS011;59834;52.124;5.422;2023-07-13T01:35:51;5.22;;;0.55;;
71963;SDS011;59834;52.124;5.422;2023-07-13T01:38:19;4.45;;;0.70;;
71963;SDS011;59834;52.124;5.422;2023-07-13T01:40:49;6.35;;;1.23;;
71963;SDS011;59834;52.124;5.422;2023-07-13T01:43:18;6.63;;;0.65;;
71963;SDS011;59834;52.124;5.422;2023-07-13T01:45:45;7.03;;;0.93;;
71963;SDS011;59834;52.124;5.422;2023-07-13T01:48:12;4.40;;;0.43;;
71963;SDS011;59834;52.124;5.422;2023-07-13T01:50:39;7.63;;;0.68;;
71963;SDS011;59834;52.124;5.422;2023-07-13T01:53:06;4.05;;;0.63;;
71963;SDS011;59834;52.124;5.422;2023-07-13T01:55:33;10.23;;;0.77;;
71963;SDS011;59834;52.124;5.422;2023-07-13T01:58:00;9.13;;;0.73;;
71963;SDS011;59834;52.124;5.422;2023-07-13T02:00:27;4.10;;;0.55;;
71963;SDS011;59834;52.124;5.422;2023-07-13T02:02:53;5.18;;;0.70;;
71963;SDS011;59834;52.124;5.422;2023-07-13T02:05:20;1.58;;;0.50;;
71963;SDS011;59834;52.124;5.422;2023-07-13T02:07:47;7.13;;;0.40;;
71963;SDS011;59834;52.124;5.422;2023-07-13T02:10:13;5.20;;;0.80;;
71963;SDS011;59834;52.124;5.422;2023-07-13T02:12:40;4.35;;;0.50;;
71963;SDS011;59834;52.124;5.422;2023-07-13T02:15:08;12.50;;;1.52;;
71963;SDS011;59834;52.124;5.422;2023-07-13T02:17:35;8.45;;;0.68;;
71963;SDS011;59834;52.124;5.422;2023-07-13T02:20:02;6.22;;;0.57;;
71963;SDS011;59834;52.124;5.422;2023-07-13T02:22:30;4.63;;;0.70;;
71963;SDS011;59834;52.124;5.422;2023-07-13T02:24:57;5.00;;;0.73;;
71963;SDS011;59834;52.124;5.422;2023-07-13T02:27:24;3.72;;;0.30;;
71963;SDS011;59834;52.124;5.422;2023-07-13T02:29:50;4.78;;;0.65;;
71963;SDS011;59834;52.124;5.422;2023-07-13T02:32:20;3.03;;;0.60;;
71963;SDS011;59834;52.124;5.422;2023-07-13T02:34:46;4.25;;;0.90;;
71963;SDS011;59834;52.124;5.422;2023-07-13T02:37:13;4.15;;;0.60;;
71963;SDS011;59834;52.124;5.422;2023-07-13T02:39:39;5.00;;;0.93;;
71963;SDS011;59834;52.124;5.422;2023-07-13T02:42:06;5.85;;;0.70;;
71963;SDS011;59834;52.124;5.422;2023-07-13T02:44:32;8.32;;;2.42;;
71963;SDS011;59834;52.124;5.422;2023-07-13T02:46:59;6.80;;;1.07;;
71963;SDS011;59834;52.124;5.422;2023-07-13T02:49:26;7.68;;;0.70;;
71963;SDS011;59834;52.124;5.422;2023-07-13T02:51:52;7.70;;;0.95;;
71963;SDS011;59834;52.124;5.422;2023-07-13T02:54:19;6.43;;;0.55;;
71963;SDS011;59834;52.124;5.422;2023-07-13T02:56:45;4.65;;;0.68;;
71963;SDS011;59834;52.124;5.422;2023-07-13T02:59:12;3.27;;;0.80;;
71963;SDS011;59834;52.124;5.422;2023-07-13T03:01:39;8.27;;;0.70;;
71963;SDS011;59834;52.124;5.422;2023-07-13T03:04:07;2.92;;;0.60;;
71963;SDS011;59834;52.124;5.422;2023-07-13T03:06:34;5.22;;;1.20;;
71963;SDS011;59834;52.124;5.422;2023-07-13T03:09:00;7.50;;;0.93;;
71963;SDS011;59834;52.124;5.422;2023-07-13T03:11:27;7.28;;;1.63;;
71963;SDS011;59834;52.124;5.422;2023-07-13T03:13:54;6.85;;;1.23;;
71963;SDS011;59834;52.124;5.422;2023-07-13T03:16:21;9.65;;;0.90;;
71963;SDS011;59834;52.124;5.422;2023-07-13T03:18:48;5.43;;;0.70;;
71963;SDS011;59834;52.124;5.422;2023-07-13T03:21:14;5.50;;;0.80;;
71963;SDS011;59834;52.124;5.422;2023-07-13T03:23:41;4.80;;;0.77;;
71963;SDS011;59834;52.124;5.422;2023-07-13T03:28:37;4.22;;;0.85;;
71963;SDS011;59834;52.124;5.422;2023-07-13T03:31:05;3.42;;;0.98;;
71963;SDS011;59834;52.124;5.422;2023-07-13T03:33:34;4.30;;;1.75;;
71963;SDS011;59834;52.124;5.422;2023-07-13T03:36:02;6.00;;;0.93;;
71963;SDS011;59834;52.124;5.422;2023-07-13T03:38:29;3.33;;;0.95;;
71963;SDS011;59834;52.124;5.422;2023-07-13T03:40:56;9.57;;;1.25;;
71963;SDS011;59834;52.124;5.422;2023-07-13T03:43:22;8.90;;;0.95;;
71963;SDS011;59834;52.124;5.422;2023-07-13T03:45:49;9.10;;;2.25;;
71963;SDS011;59834;52.124;5.422;2023-07-13T03:48:16;7.30;;;1.10;;
71963;SDS011;59834;52.124;5.422;2023-07-13T03:50:43;6.60;;;1.00;;
71963;SDS011;59834;52.124;5.422;2023-07-13T03:53:09;5.15;;;1.42;;
71963;SDS011;59834;52.124;5.422;2023-07-13T03:55:36;7.75;;;1.17;;
71963;SDS011;59834;52.124;5.422;2023-07-13T03:58:24;7.03;;;0.70;;
71963;SDS011;59834;52.124;5.422;2023-07-13T04:00:53;5.43;;;1.10;;
71963;SDS011;59834;52.124;5.422;2023-07-13T04:03:21;12.40;;;1.35;;
71963;SDS011;59834;52.124;5.422;2023-07-13T04:05:47;5.60;;;0.80;;
71963;SDS011;59834;52.124;5.422;2023-07-13T04:08:14;8.18;;;1.40;;
71963;SDS011;59834;52.124;5.422;2023-07-13T04:10:41;6.82;;;1.63;;
71963;SDS011;59834;52.124;5.422;2023-07-13T04:13:08;9.20;;;0.77;;
71963;SDS011;59834;52.124;5.422;2023-07-13T04:15:35;10.90;;;1.52;;
71963;SDS011;59834;52.124;5.422;2023-07-13T04:18:02;6.43;;;1.25;;
71963;SDS011;59834;52.124;5.422;2023-07-13T04:20:29;11.30;;;2.05;;
71963;SDS011;59834;52.124;5.422;2023-07-13T04:22:56;8.57;;;0.95;;
71963;SDS011;59834;52.124;5.422;2023-07-13T04:25:23;7.57;;;1.20;;
71963;SDS011;59834;52.124;5.422;2023-07-13T04:27:50;4.60;;;1.42;;
71963;SDS011;59834;52.124;5.422;2023-07-13T04:30:18;6.90;;;1.48;;
71963;SDS011;59834;52.124;5.422;2023-07-13T04:32:45;8.50;;;1.20;;
71963;SDS011;59834;52.124;5.422;2023-07-13T04:35:12;7.18;;;1.45;;
71963;SDS011;59834;52.124;5.422;2023-07-13T04:37:40;6.60;;;1.40;;
71963;SDS011;59834;52.124;5.422;2023-07-13T04:40:07;7.88;;;0.98;;
71963;SDS011;59834;52.124;5.422;2023-07-13T04:42:38;5.75;;;1.33;;
71963;SDS011;59834;52.124;5.422;2023-07-13T04:45:05;11.73;;;3.17;;
71963;SDS011;59834;52.124;5.422;2023-07-13T04:47:33;8.93;;;1.27;;
71963;SDS011;59834;52.124;5.422;2023-07-13T04:49:59;10.27;;;2.87;;
71963;SDS011;59834;52.124;5.422;2023-07-13T04:52:26;9.02;;;1.30;;
71963;SDS011;59834;52.124;5.422;2023-07-13T04:54:52;12.60;;;1.80;;
71963;SDS011;59834;52.124;5.422;2023-07-13T04:57:19;10.65;;;2.00;;
71963;SDS011;59834;52.124;5.422;2023-07-13T04:59:45;10.20;;;1.67;;
71963;SDS011;59834;52.124;5.422;2023-07-13T05:02:12;8.50;;;1.43;;
71963;SDS011;59834;52.124;5.422;2023-07-13T05:04:38;7.32;;;1.48;;
71963;SDS011;59834;52.124;5.422;2023-07-13T05:07:05;7.22;;;1.35;;
71963;SDS011;59834;52.124;5.422;2023-07-13T05:09:32;12.00;;;1.83;;
71963;SDS011;59834;52.124;5.422;2023-07-13T05:11:59;10.65;;;1.50;;
71963;SDS011;59834;52.124;5.422;2023-07-13T05:14:25;8.90;;;1.83;;
71963;SDS011;59834;52.124;5.422;2023-07-13T05:16:51;10.15;;;1.65;;
71963;SDS011;59834;52.124;5.422;2023-07-13T05:19:18;12.32;;;2.08;;
71963;SDS011;59834;52.124;5.422;2023-07-13T05:21:45;11.20;;;2.25;;
71963;SDS011;59834;52.124;5.422;2023-07-13T05:24:11;9.88;;;1.90;;
71963;SDS011;59834;52.124;5.422;2023-07-13T05:26:51;6.13;;;2.30;;
71963;SDS011;59834;52.124;5.422;2023-07-13T05:29:17;12.60;;;2.13;;
71963;SDS011;59834;52.124;5.422;2023-07-13T05:31:44;9.55;;;2.10;;
71963;SDS011;59834;52.124;5.422;2023-07-13T05:34:10;10.45;;;1.95;;
71963;SDS011;59834;52.124;5.422;2023-07-13T05:36:37;14.95;;;1.98;;
71963;SDS011;59834;52.124;5.422;2023-07-13T05:39:04;14.23;;;2.53;;
71963;SDS011;59834;52.124;5.422;2023-07-13T05:41:30;9.68;;;2.53;;
71963;SDS011;59834;52.124;5.422;2023-07-13T05:43:57;8.20;;;2.58;;
71963;SDS011;59834;52.124;5.422;2023-07-13T05:46:25;13.93;;;2.97;;
71963;SDS011;59834;52.124;5.422;2023-07-13T05:48:52;10.18;;;3.45;;
71963;SDS011;59834;52.124;5.422;2023-07-13T05:51:18;8.50;;;2.70;;
71963;SDS011;59834;52.124;5.422;2023-07-13T05:53:45;15.10;;;3.58;;
71963;SDS011;59834;52.124;5.422;2023-07-13T05:56:11;12.48;;;3.78;;
71963;SDS011;59834;52.124;5.422;2023-07-13T05:58:38;12.00;;;3.65;;
71963;SDS011;59834;52.124;5.422;2023-07-13T06:01:06;9.80;;;3.47;;
71963;SDS011;59834;52.124;5.422;2023-07-13T06:03:36;13.97;;;3.87;;
71963;SDS011;59834;52.124;5.422;2023-07-13T06:06:06;14.75;;;3.58;;
71963;SDS011;59834;52.124;5.422;2023-07-13T06:08:35;11.95;;;3.45;;
71963;SDS011;59834;52.124;5.422;2023-07-13T06:11:03;12.23;;;3.63;;
71963;SDS011;59834;52.124;5.422;2023-07-13T06:13:31;13.80;;;3.63;;
71963;SDS011;59834;52.124;5.422;2023-07-13T06:16:00;13.83;;;3.60;;
71963;SDS011;59834;52.124;5.422;2023-07-13T06:18:31;12.98;;;4.35;;
71963;SDS011;59834;52.124;5.422;2023-07-13T06:20:58;14.73;;;3.58;;
71963;SDS011;59834;52.124;5.422;2023-07-13T06:23:25;13.60;;;4.45;;
71963;SDS011;59834;52.124;5.422;2023-07-13T06:25:52;15.00;;;5.00;;
71963;SDS011;59834;52.124;5.422;2023-07-13T06:28:18;9.90;;;3.70;;
71963;SDS011;59834;52.124;5.422;2023-07-13T06:30:46;16.92;;;6.45;;
71963;SDS011;59834;52.124;5.422;2023-07-13T06:33:12;14.38;;;4.82;;
71963;SDS011;59834;52.124;5.422;2023-07-13T06:35:39;12.93;;;4.18;;
71963;SDS011;59834;52.124;5.422;2023-07-13T06:38:05;13.55;;;3.92;;
71963;SDS011;59834;52.124;5.422;2023-07-13T06:40:33;15.23;;;5.40;;
71963;SDS011;59834;52.124;5.422;2023-07-13T06:42:59;9.48;;;3.88;;
71963;SDS011;59834;52.124;5.422;2023-07-13T06:45:26;12.10;;;4.50;;
71963;SDS011;59834;52.124;5.422;2023-07-13T06:47:52;11.50;;;3.65;;
71963;SDS011;59834;52.124;5.422;2023-07-13T06:50:19;13.57;;;4.07;;
71963;SDS011;59834;52.124;5.422;2023-07-13T06:52:45;10.83;;;3.57;;
71963;SDS011;59834;52.124;5.422;2023-07-13T06:55:12;10.88;;;4.28;;
71963;SDS011;59834;52.124;5.422;2023-07-13T06:57:39;15.15;;;5.03;;
71963;SDS011;59834;52.124;5.422;2023-07-13T07:00:05;10.98;;;4.80;;
71963;SDS011;59834;52.124;5.422;2023-07-13T07:02:33;15.27;;;4.82;;
71963;SDS011;59834;52.124;5.422;2023-07-13T07:04:59;13.80;;;4.47;;
71963;SDS011;59834;52.124;5.422;2023-07-13T07:07:27;10.20;;;4.95;;
71963;SDS011;59834;52.124;5.422;2023-07-13T07:09:53;14.43;;;4.20;;
71963;SDS011;59834;52.124;5.422;2023-07-13T07:12:20;8.25;;;4.07;;
71963;SDS011;59834;52.124;5.422;2023-07-13T07:14:46;11.90;;;4.82;;
71963;SDS011;59834;52.124;5.422;2023-07-13T07:17:13;12.83;;;5.17;;
71963;SDS011;59834;52.124;5.422;2023-07-13T07:19:40;16.98;;;5.95;;
71963;SDS011;59834;52.124;5.422;2023-07-13T07:22:07;11.50;;;5.18;;
71963;SDS011;59834;52.124;5.422;2023-07-13T07:24:34;11.93;;;4.60;;
71963;SDS011;59834;52.124;5.422;2023-07-13T07:27:01;11.40;;;5.10;;
71963;SDS011;59834;52.124;5.422;2023-07-13T07:29:30;13.97;;;5.30;;
71963;SDS011;59834;52.124;5.422;2023-07-13T07:32:00;16.05;;;5.35;;
71963;SDS011;59834;52.124;5.422;2023-07-13T07:34:32;10.65;;;4.72;;
71963;SDS011;59834;52.124;5.422;2023-07-13T07:36:59;17.08;;;5.43;;
71963;SDS011;59834;52.124;5.422;2023-07-13T07:39:30;13.80;;;4.80;;
71963;SDS011;59834;52.124;5.422;2023-07-13T07:41:57;16.57;;;4.80;;
71963;SDS011;59834;52.124;5.422;2023-07-13T07:44:23;13.02;;;4.20;;
71963;SDS011;59834;52.124;5.422;2023-07-13T07:46:51;15.82;;;5.57;;
71963;SDS011;59834;52.124;5.422;2023-07-13T07:49:17;16.02;;;6.18;;
71963;SDS011;59834;52.124;5.422;2023-07-13T07:51:44;19.40;;;5.68;;
71963;SDS011;59834;52.124;5.422;2023-07-13T07:54:11;15.43;;;5.43;;
71963;SDS011;59834;52.124;5.422;2023-07-13T07:56:47;16.33;;;7.07;;
71963;SDS011;59834;52.124;5.422;2023-07-13T07:59:33;13.15;;;4.90;;
71963;SDS011;59834;52.124;5.422;2023-07-13T08:02:03;19.67;;;5.53;;
71963;SDS011;59834;52.124;5.422;2023-07-13T08:04:33;7.93;;;4.55;;
71963;SDS011;59834;52.124;5.422;2023-07-13T08:07:02;13.17;;;4.43;;
71963;SDS011;59834;52.124;5.422;2023-07-13T08:09:29;7.85;;;4.60;;
71963;SDS011;59834;52.124;5.422;2023-07-13T08:11:56;15.95;;;5.95;;
71963;SDS011;59834;52.124;5.422;2023-07-13T08:14:25;11.85;;;4.22;;
71963;SDS011;59834;52.124;5.422;2023-07-13T08:17:12;8.07;;;3.95;;
71963;SDS011;59834;52.124;5.422;2023-07-13T08:19:38;11.30;;;3.60;;
71963;SDS011;59834;52.124;5.422;2023-07-13T08:22:06;10.07;;;3.92;;
71963;SDS011;59834;52.124;5.422;2023-07-13T08:24:33;9.32;;;3.53;;
71963;SDS011;59834;52.124;5.422;2023-07-13T08:26:59;12.13;;;3.53;;
71963;SDS011;59834;52.124;5.422;2023-07-13T08:29:26;14.32;;;3.70;;
71963;SDS011;59834;52.124;5.422;2023-07-13T08:31:52;7.57;;;2.97;;
71963;SDS011;59834;52.124;5.422;2023-07-13T08:34:20;8.57;;;2.95;;
71963;SDS011;59834;52.124;5.422;2023-07-13T08:36:46;8.48;;;3.30;;
71963;SDS011;59834;52.124;5.422;2023-07-13T08:39:13;11.63;;;4.43;;
71963;SDS011;59834;52.124;5.422;2023-07-13T08:41:40;10.85;;;3.58;;
71963;SDS011;59834;52.124;5.422;2023-07-13T08:44:10;7.20;;;2.00;;
71963;SDS011;59834;52.124;5.422;2023-07-13T08:46:50;6.25;;;1.75;;
71963;SDS011;59834;52.124;5.422;2023-07-13T08:49:22;9.27;;;1.88;;
71963;SDS011;59834;52.124;5.422;2023-07-13T08:51:51;6.40;;;1.73;;
71963;SDS011;59834;52.124;5.422;2023-07-13T08:54:32;6.47;;;0.75;;
71963;SDS011;59834;52.124;5.422;2023-07-13T08:57:08;4.70;;;0.70;;
71963;SDS011;59834;52.124;5.422;2023-07-13T08:59:40;4.13;;;1.13;;
71963;SDS011;59834;52.124;5.422;2023-07-13T09:04:59;5.35;;;0.85;;
71963;SDS011;59834;52.124;5.422;2023-07-13T09:10:25;5.47;;;1.27;;
71963;SDS011;59834;52.124;5.422;2023-07-13T09:13:00;4.47;;;0.57;;
71963;SDS011;59834;52.124;5.422;2023-07-13T09:15:46;4.15;;;1.00;;
71963;SDS011;59834;52.124;5.422;2023-07-13T09:18:23;5.18;;;1.17;;
71963;SDS011;59834;52.124;5.422;2023-07-13T09:21:15;4.93;;;1.05;;
71963;SDS011;59834;52.124;5.422;2023-07-13T09:23:44;4.27;;;1.20;;
71963;SDS011;59834;52.124;5.422;2023-07-13T09:26:18;7.35;;;1.20;;
71963;SDS011;59834;52.124;5.422;2023-07-13T09:28:48;5.90;;;1.15;;
71963;SDS011;59834;52.124;5.422;2023-07-13T09:31:23;4.63;;;1.42;;
71963;SDS011;59834;52.124;5.422;2023-07-13T09:33:55;3.70;;;0.85;;
71963;SDS011;59834;52.124;5.422;2023-07-13T09:36:29;4.70;;;1.40;;
71963;SDS011;59834;52.124;5.422;2023-07-13T09:39:05;3.72;;;0.70;;
71963;SDS011;59834;52.124;5.422;2023-07-13T09:41:57;3.05;;;0.90;;
71963;SDS011;59834;52.124;5.422;2023-07-13T09:44:28;7.88;;;2.08;;
71963;SDS011;59834;52.124;5.422;2023-07-13T09:46:57;3.70;;;0.85;;
71963;SDS011;59834;52.124;5.422;2023-07-13T09:49:28;3.57;;;0.87;;
71963;SDS011;59834;52.124;5.422;2023-07-13T09:52:00;4.07;;;1.35;;
71963;SDS011;59834;52.124;5.422;2023-07-13T09:54:29;4.95;;;0.90;;
71963;SDS011;59834;52.124;5.422;2023-07-13T09:56:56;4.20;;;0.90;;
71963;SDS011;59834;52.124;5.422;2023-07-13T09:59:27;5.32;;;0.95;;
71963;SDS011;59834;52.124;5.422;2023-07-13T10:01:56;5.07;;;1.33;;
71963;SDS011;59834;52.124;5.422;2023-07-13T10:04:27;8.25;;;1.02;;
71963;SDS011;59834;52.124;5.422;2023-07-13T10:07:11;2.55;;;0.63;;
71963;SDS011;59834;52.124;5.422;2023-07-13T10:09:55;7.38;;;0.90;;
71963;SDS011;59834;52.124;5.422;2023-07-13T10:12:23;7.40;;;1.17;;
71963;SDS011;59834;52.124;5.422;2023-07-13T10:14:52;1.87;;;1.00;;
71963;SDS011;59834;52.124;5.422;2023-07-13T10:17:33;3.15;;;0.70;;
71963;SDS011;59834;52.124;5.422;2023-07-13T10:20:02;5.50;;;1.23;;
71963;SDS011;59834;52.124;5.422;2023-07-13T10:25:20;2.95;;;0.95;;
71963;SDS011;59834;52.124;5.422;2023-07-13T10:27:50;5.67;;;0.90;;
71963;SDS011;59834;52.124;5.422;2023-07-13T10:30:27;4.68;;;0.80;;
71963;SDS011;59834;52.124;5.422;2023-07-13T10:33:01;2.97;;;0.90;;
71963;SDS011;59834;52.124;5.422;2023-07-13T10:35:29;1.95;;;0.95;;
71963;SDS011;59834;52.124;5.422;2023-07-13T10:40:37;3.00;;;1.10;;
71963;SDS011;59834;52.124;5.422;2023-07-13T10:43:25;6.72;;;1.27;;
71963;SDS011;59834;52.124;5.422;2023-07-13T10:45:58;7.00;;;1.77;;
71963;SDS011;59834;52.124;5.422;2023-07-13T10:48:26;3.00;;;1.23;;
71963;SDS011;59834;52.124;5.422;2023-07-13T10:50:55;2.53;;;0.65;;
71963;SDS011;59834;52.124;5.422;2023-07-13T10:55:59;4.05;;;0.82;;
71963;SDS011;59834;52.124;5.422;2023-07-13T10:58:31;3.05;;;0.77;;
71963;SDS011;59834;52.124;5.422;2023-07-13T11:03:55;2.47;;;0.73;;
71963;SDS011;59834;52.124;5.422;2023-07-13T11:06:33;4.90;;;0.73;;
71963;SDS011;59834;52.124;5.422;2023-07-13T11:09:30;2.20;;;0.65;;
71963;SDS011;59834;52.124;5.422;2023-07-13T11:12:10;2.33;;;0.90;;
71963;SDS011;59834;52.124;5.422;2023-07-13T11:22:44;4.65;;;0.82;;
71963;SDS011;59834;52.124;5.422;2023-07-13T11:25:24;1.77;;;0.70;;
71963;SDS011;59834;52.124;5.422;2023-07-13T11:30:49;2.42;;;0.88;;
71963;SDS011;59834;52.124;5.422;2023-07-13T11:36:03;5.00;;;1.13;;
71963;SDS011;59834;52.124;5.422;2023-07-13T11:41:13;3.33;;;1.35;;
71963;SDS011;59834;52.124;5.422;2023-07-13T11:43:44;2.90;;;0.70;;
71963;SDS011;59834;52.124;5.422;2023-07-13T11:46:15;4.40;;;0.90;;
71963;SDS011;59834;52.124;5.422;2023-07-13T11:48:47;3.88;;;1.13;;
71963;SDS011;59834;52.124;5.422;2023-07-13T11:51:17;3.25;;;1.10;;
71963;SDS011;59834;52.124;5.422;2023-07-13T11:53:46;2.25;;;0.80;;
71963;SDS011;59834;52.124;5.422;2023-07-13T11:56:15;3.03;;;0.88;;
71963;SDS011;59834;52.124;5.422;2023-07-13T11:58:42;3.67;;;0.87;;
71963;SDS011;59834;52.124;5.422;2023-07-13T12:01:22;4.18;;;1.42;;
71963;SDS011;59834;52.124;5.422;2023-07-13T12:03:52;4.05;;;1.00;;
71963;SDS011;59834;52.124;5.422;2023-07-13T12:06:28;5.07;;;1.17;;
71963;SDS011;59834;52.124;5.422;2023-07-13T12:08:59;3.97;;;1.30;;
71963;SDS011;59834;52.124;5.422;2023-07-13T12:11:27;4.07;;;1.60;;
71963;SDS011;59834;52.124;5.422;2023-07-13T12:13:54;2.50;;;1.13;;
71963;SDS011;59834;52.124;5.422;2023-07-13T12:18:56;4.75;;;1.63;;
71963;SDS011;59834;52.124;5.422;2023-07-13T12:21:27;6.07;;;1.38;;
71963;SDS011;59834;52.124;5.422;2023-07-13T12:23:57;4.30;;;1.33;;
71963;SDS011;59834;52.124;5.422;2023-07-13T12:26:24;3.20;;;1.30;;
71963;SDS011;59834;52.124;5.422;2023-07-13T12:28:52;4.60;;;1.40;;
71963;SDS011;59834;52.124;5.422;2023-07-13T12:31:25;5.60;;;1.73;;
71963;SDS011;59834;52.124;5.422;2023-07-13T12:33:57;4.28;;;1.00;;
71963;SDS011;59834;52.124;5.422;2023-07-13T12:36:25;5.13;;;1.27;;
71963;SDS011;59834;52.124;5.422;2023-07-13T12:38:53;3.70;;;0.90;;
71963;SDS011;59834;52.124;5.422;2023-07-13T12:41:20;1.75;;;0.98;;
71963;SDS011;59834;52.124;5.422;2023-07-13T12:43:47;6.50;;;1.35;;
71963;SDS011;59834;52.124;5.422;2023-07-13T12:46:17;3.38;;;1.00;;
71963;SDS011;59834;52.124;5.422;2023-07-13T12:48:51;3.40;;;1.13;;
71963;SDS011;59834;52.124;5.422;2023-07-13T12:51:38;2.33;;;0.90;;
71963;SDS011;59834;52.124;5.422;2023-07-13T12:54:15;4.68;;;1.42;;
71963;SDS011;59834;52.124;5.422;2023-07-13T12:56:45;5.30;;;1.30;;
71963;SDS011;59834;52.124;5.422;2023-07-13T12:59:20;3.42;;;0.82;;
71963;SDS011;59834;52.124;5.422;2023-07-13T13:01:48;4.80;;;0.90;;
71963;SDS011;59834;52.124;5.422;2023-07-13T13:04:16;2.13;;;0.90;;
71963;SDS011;59834;52.124;5.422;2023-07-13T13:06:48;4.13;;;1.23;;
71963;SDS011;59834;52.124;5.422;2023-07-13T13:09:16;5.13;;;0.82;;
71963;SDS011;59834;52.124;5.422;2023-07-13T13:11:44;4.25;;;1.08;;
71963;SDS011;59834;52.124;5.422;2023-07-13T13:14:11;4.03;;;1.07;;
71963;SDS011;59834;52.124;5.422;2023-07-13T13:16:48;5.40;;;1.35;;
71963;SDS011;59834;52.124;5.422;2023-07-13T13:19:17;2.58;;;0.90;;
71963;SDS011;59834;52.124;5.422;2023-07-13T13:21:47;4.30;;;0.95;;
71963;SDS011;59834;52.124;5.422;2023-07-13T13:24:17;7.18;;;1.05;;
71963;SDS011;59834;52.124;5.422;2023-07-13T13:26:46;4.17;;;1.50;;
71963;SDS011;59834;52.124;5.422;2023-07-13T13:29:24;5.05;;;1.48;;
71963;SDS011;59834;52.124;5.422;2023-07-13T13:31:51;3.85;;;0.85;;
71963;SDS011;59834;52.124;5.422;2023-07-13T13:34:20;3.03;;;1.02;;
71963;SDS011;59834;52.124;5.422;2023-07-13T13:36:49;2.95;;;1.10;;
71963;SDS011;59834;52.124;5.422;2023-07-13T13:39:22;4.87;;;1.13;;
71963;SDS011;59834;52.124;5.422;2023-07-13T13:41:51;2.22;;;0.70;;
71963;SDS011;59834;52.124;5.422;2023-07-13T13:44:20;2.42;;;0.82;;
71963;SDS011;59834;52.124;5.422;2023-07-13T13:46:48;4.03;;;1.02;;
71963;SDS011;59834;52.124;5.422;2023-07-13T13:49:19;4.88;;;1.50;;
71963;SDS011;59834;52.124;5.422;2023-07-13T13:51:50;3.73;;;1.10;;
71963;SDS011;59834;52.124;5.422;2023-07-13T13:54:17;5.65;;;1.65;;
71963;SDS011;59834;52.124;5.422;2023-07-13T13:56:46;3.75;;;1.15;;
71963;SDS011;59834;52.124;5.422;2023-07-13T13:59:13;3.17;;;0.98;;
71963;SDS011;59834;52.124;5.422;2023-07-13T14:01:44;2.92;;;0.88;;
71963;SDS011;59834;52.124;5.422;2023-07-13T14:04:20;1.73;;;0.90;;
71963;SDS011;59834;52.124;5.422;2023-07-13T14:06:48;4.63;;;1.25;;
71963;SDS011;59834;52.124;5.422;2023-07-13T14:09:16;3.67;;;1.25;;
71963;SDS011;59834;52.124;5.422;2023-07-13T14:11:45;3.72;;;0.90;;
71963;SDS011;59834;52.124;5.422;2023-07-13T14:14:17;2.15;;;1.02;;
71963;SDS011;59834;52.124;5.422;2023-07-13T14:16:46;2.23;;;1.00;;
71963;SDS011;59834;52.124;5.422;2023-07-13T14:19:20;3.55;;;1.20;;
71963;SDS011;59834;52.124;5.422;2023-07-13T14:21:47;4.22;;;1.23;;
71963;SDS011;59834;52.124;5.422;2023-07-13T14:24:15;7.15;;;0.85;;
71963;SDS011;59834;52.124;5.422;2023-07-13T14:26:42;5.43;;;1.00;;
71963;SDS011;59834;52.124;5.422;2023-07-13T14:29:13;4.70;;;1.00;;
71963;SDS011;59834;52.124;5.422;2023-07-13T14:31:41;4.85;;;1.00;;
71963;SDS011;59834;52.124;5.422;2023-07-13T14:34:11;4.45;;;0.90;;
71963;SDS011;59834;52.124;5.422;2023-07-13T14:36:40;4.93;;;1.30;;
71963;SDS011;59834;52.124;5.422;2023-07-13T14:39:20;4.30;;;1.23;;
71963;SDS011;59834;52.124;5.422;2023-07-13T14:41:52;2.47;;;0.90;;
71963;SDS011;59834;52.124;5.422;2023-07-13T14:44:21;5.10;;;1.20;;
71963;SDS011;59834;52.124;5.422;2023-07-13T14:46:52;4.07;;;0.80;;
71963;SDS011;59834;52.124;5.422;2023-07-13T14:49:29;4.15;;;1.00;;
71963;SDS011;59834;52.124;5.422;2023-07-13T14:52:02;3.50;;;1.10;;
71963;SDS011;59834;52.124;5.422;2023-07-13T14:54:37;7.57;;;0.93;;
71963;SDS011;59834;52.124;5.422;2023-07-13T14:57:10;6.68;;;1.10;;
71963;SDS011;59834;52.124;5.422;2023-07-13T14:59:47;6.70;;;0.88;;
71963;SDS011;59834;52.124;5.422;2023-07-13T15:04:42;5.45;;;0.95;;
71963;SDS011;59834;52.124;5.422;2023-07-13T15:07:10;2.90;;;1.00;;
71963;SDS011;59834;52.124;5.422;2023-07-13T15:09:37;3.80;;;0.98;;
71963;SDS011;59834;52.124;5.422;2023-07-13T15:12:04;4.88;;;1.30;;
71963;SDS011;59834;52.124;5.422;2023-07-13T15:14:31;3.03;;;0.85;;
71963;SDS011;59834;52.124;5.422;2023-07-13T15:16:58;5.57;;;0.90;;
71963;SDS011;59834;52.124;5.422;2023-07-13T15:19:26;2.10;;;1.17;;
71963;SDS011;59834;52.124;5.422;2023-07-13T15:21:56;4.07;;;1.35;;
71963;SDS011;59834;52.124;5.422;2023-07-13T15:24:27;4.28;;;0.70;;
71963;SDS011;59834;52.124;5.422;2023-07-13T15:26:55;5.10;;;0.90;;
71963;SDS011;59834;52.124;5.422;2023-07-13T15:29:22;4.65;;;0.70;;
71963;SDS011;59834;52.124;5.422;2023-07-13T15:31:49;5.50;;;0.90;;
71963;SDS011;59834;52.124;5.422;2023-07-13T15:34:16;3.33;;;0.90;;
71963;SDS011;59834;52.124;5.422;2023-07-13T15:36:47;5.72;;;0.65;;
71963;SDS011;59834;52.124;5.422;2023-07-13T15:39:15;3.90;;;0.90;;